Time;durP1;ratioP1;P1;durP2;ratioP2;P2;SDS_P1;SDS_P2;PMS_P1;PMS_P2;Temp;Humidity;BMP_temperature;BMP_pressure;BME280_temperature;BME280_humidity;BME280_pressure;Samples;Min_cycle;Max_cycle;Signal;HPM_P1;HPM_P2
2020/12/30 00:00:59;;;;;;;6.5;4.450001;;;;;;;-0.12;73.35547;93527.09;;;;
2020/12/30 00:01:59;;;;;;;6.5;4.450001;;;;;;;-0.12;73.35547;93527.09;;;;
2020/12/30 00:03:00;;;;;;;8.899998;5.099999;;;;;;;-0.39;73.48633;93532.67;;;;
2020/12/30 00:04:00;;;;;;;8.899998;5.099999;;;;;;;-0.39;73.48633;93532.67;;;;
2020/12/30 00:05:01;;;;;;;8.899998;5.099999;;;;;;;-0.39;73.48633;93532.67;;;;
2020/12/30 00:06:05;;;;;;;8.899998;5.099999;;;;;;;-0.39;73.48633;93532.67;;;;
2020/12/30 00:07:05;;;;;;;8.899998;5.099999;;;;;;;-0.39;73.48633;93532.67;;;;
2020/12/30 00:08:06;;;;;;;8.899998;5.099999;;;;;;;-0.39;73.48633;93532.67;;;;
2020/12/30 00:09:06;;;;;;;8.899998;5.099999;;;;;;;-0.39;73.48633;93532.67;;;;
2020/12/30 00:10:07;;;;;;;8.899998;5.099999;;;;;;;-0.39;73.48633;93532.67;;;;
2020/12/30 00:11:10;;;;;;;8.899998;5.099999;;;;;;;-0.39;73.48633;93532.67;;;;
2020/12/30 00:12:10;;;;;;;8.899998;5.099999;;;;;;;-0.39;73.48633;93532.67;;;;
2020/12/30 00:13:11;;;;;;;10.6;5.299999;;;;;;;-0.63;73.6543;93544.03;;;;
2020/12/30 00:14:11;;;;;;;10.6;5.299999;;;;;;;-0.63;73.6543;93544.03;;;;
2020/12/30 00:15:12;;;;;;;10.6;5.299999;;;;;;;-0.63;73.6543;93544.03;;;;
2020/12/30 00:16:14;;;;;;;10.6;5.299999;;;;;;;-0.63;73.6543;93544.03;;;;
2020/12/30 00:17:15;;;;;;;10.6;5.299999;;;;;;;-0.63;73.6543;93544.03;;;;
2020/12/30 00:18:15;;;;;;;10.6;5.299999;;;;;;;-0.63;73.6543;93544.03;;;;
2020/12/30 00:19:16;;;;;;;10.6;5.299999;;;;;;;-0.63;73.6543;93544.03;;;;
2020/12/30 00:20:16;;;;;;;10.6;5.299999;;;;;;;-0.63;73.6543;93544.03;;;;
2020/12/30 00:21:18;;;;;;;10.6;5.299999;;;;;;;-0.63;73.6543;93544.03;;;;
2020/12/30 00:22:18;;;;;;;10.6;5.299999;;;;;;;-0.63;73.6543;93544.03;;;;
2020/12/30 00:23:19;;;;;;;10.6;5.299999;;;;;;;-0.63;73.6543;93544.03;;;;
2020/12/30 00:24:19;;;;;;;9.05;5.25;;;;;;;-0.92;73.78223;93544.95;;;;
2020/12/30 00:25:20;;;;;;;9.05;5.25;;;;;;;-0.92;73.78223;93544.95;;;;
2020/12/30 00:26:20;;;;;;;9.05;5.25;;;;;;;-0.92;73.78223;93544.95;;;;
2020/12/30 00:27:21;;;;;;;9.05;5.25;;;;;;;-0.92;73.78223;93544.95;;;;
2020/12/30 00:28:22;;;;;;;9.05;5.25;;;;;;;-0.92;73.78223;93544.95;;;;
2020/12/30 00:29:22;;;;;;;9.05;5.25;;;;;;;-0.92;73.78223;93544.95;;;;
2020/12/30 00:30:23;;;;;;;9.05;5.25;;;;;;;-0.92;73.78223;93544.95;;;;
2020/12/30 00:31:23;;;;;;;9.05;5.25;;;;;;;-0.92;73.78223;93544.95;;;;
2020/12/30 00:32:24;;;;;;;9.05;5.25;;;;;;;-0.92;73.78223;93544.95;;;;
2020/12/30 00:33:24;;;;;;;9.05;5.25;;;;;;;-0.92;73.78223;93544.95;;;;
2020/12/30 00:34:25;;;;;;;8.099999;4.45;;;;;;;-1.17;74.07129;93548.77;;;;
2020/12/30 00:35:25;;;;;;;8.099999;4.45;;;;;;;-1.17;74.07129;93548.77;;;;
2020/12/30 00:36:26;;;;;;;8.099999;4.45;;;;;;;-1.17;74.07129;93548.77;;;;
2020/12/30 00:37:27;;;;;;;8.099999;4.45;;;;;;;-1.17;74.07129;93548.77;;;;
2020/12/30 00:38:27;;;;;;;8.099999;4.45;;;;;;;-1.17;74.07129;93548.77;;;;
2020/12/30 00:39:27;;;;;;;8.099999;4.45;;;;;;;-1.17;74.07129;93548.77;;;;
2020/12/30 00:40:28;;;;;;;8.099999;4.45;;;;;;;-1.17;74.07129;93548.77;;;;
2020/12/30 00:41:28;;;;;;;8.099999;4.45;;;;;;;-1.17;74.07129;93548.77;;;;
2020/12/30 00:42:29;;;;;;;8.099999;4.45;;;;;;;-1.17;74.07129;93548.77;;;;
2020/12/30 00:43:30;;;;;;;8.099999;4.45;;;;;;;-1.17;74.07129;93548.77;;;;
2020/12/30 00:44:30;;;;;;;8.099999;4.45;;;;;;;-1.17;74.07129;93548.77;;;;
2020/12/30 00:45:31;;;;;;;7.65;4.45;;;;;;;-1.35;74.20508;93554.02;;;;
2020/12/30 00:46:31;;;;;;;7.65;4.45;;;;;;;-1.35;74.20508;93554.02;;;;
2020/12/30 00:47:32;;;;;;;7.65;4.45;;;;;;;-1.35;74.20508;93554.02;;;;
2020/12/30 00:48:32;;;;;;;7.65;4.45;;;;;;;-1.35;74.20508;93554.02;;;;
2020/12/30 00:49:33;;;;;;;7.65;4.45;;;;;;;-1.35;74.20508;93554.02;;;;
2020/12/30 00:50:33;;;;;;;7.65;4.45;;;;;;;-1.35;74.20508;93554.02;;;;
2020/12/30 00:51:34;;;;;;;7.65;4.45;;;;;;;-1.35;74.20508;93554.02;;;;
2020/12/30 00:52:34;;;;;;;7.65;4.45;;;;;;;-1.35;74.20508;93554.02;;;;
2020/12/30 00:53:35;;;;;;;7.65;4.45;;;;;;;-1.35;74.20508;93554.02;;;;
2020/12/30 00:54:35;;;;;;;7.65;4.45;;;;;;;-1.35;74.20508;93554.02;;;;
2020/12/30 00:55:36;;;;;;;7.65;4.45;;;;;;;-1.35;74.20508;93554.02;;;;
2020/12/30 00:56:36;;;;;;;7.100001;4.35;;;;;;;-1.52;74.25879;93567.36;;;;
2020/12/30 00:57:37;;;;;;;7.100001;4.35;;;;;;;-1.52;74.25879;93567.36;;;;
2020/12/30 00:58:37;;;;;;;7.100001;4.35;;;;;;;-1.52;74.25879;93567.36;;;;
2020/12/30 00:59:39;;;;;;;7.100001;4.35;;;;;;;-1.52;74.25879;93567.36;;;;
2020/12/30 01:00:39;;;;;;;7.100001;4.35;;;;;;;-1.52;74.25879;93567.36;;;;
2020/12/30 01:01:40;;;;;;;7.100001;4.35;;;;;;;-1.52;74.25879;93567.36;;;;
2020/12/30 01:02:41;;;;;;;7.100001;4.35;;;;;;;-1.52;74.25879;93567.36;;;;
2020/12/30 01:03:42;;;;;;;7.100001;4.35;;;;;;;-1.52;74.25879;93567.36;;;;
2020/12/30 01:04:43;;;;;;;7.100001;4.35;;;;;;;-1.52;74.25879;93567.36;;;;
2020/12/30 01:05:43;;;;;;;7.100001;4.35;;;;;;;-1.52;74.25879;93567.36;;;;
2020/12/30 01:06:44;;;;;;;6.099999;4.15;;;;;;;-1.6;74.22461;93568;;;;
2020/12/30 01:07:48;;;;;;;6.099999;4.15;;;;;;;-1.6;74.22461;93568;;;;
2020/12/30 01:08:48;;;;;;;6.099999;4.15;;;;;;;-1.6;74.22461;93568;;;;
2020/12/30 01:09:49;;;;;;;6.099999;4.15;;;;;;;-1.6;74.22461;93568;;;;
2020/12/30 01:10:50;;;;;;;6.099999;4.15;;;;;;;-1.6;74.22461;93568;;;;
2020/12/30 01:11:50;;;;;;;6.099999;4.15;;;;;;;-1.6;74.22461;93568;;;;
2020/12/30 01:12:51;;;;;;;6.099999;4.15;;;;;;;-1.6;74.22461;93568;;;;
2020/12/30 01:13:52;;;;;;;6.099999;4.15;;;;;;;-1.6;74.22461;93568;;;;
2020/12/30 01:14:52;;;;;;;6.099999;4.15;;;;;;;-1.6;74.22461;93568;;;;
2020/12/30 01:15:53;;;;;;;6.099999;4.15;;;;;;;-1.6;74.22461;93568;;;;
2020/12/30 01:16:54;;;;;;;6.099999;4.15;;;;;;;-1.6;74.22461;93568;;;;
2020/12/30 01:17:55;;;;;;;6.000001;4.5;;;;;;;-1.75;74.30176;93575.31;;;;
2020/12/30 01:18:55;;;;;;;6.000001;4.5;;;;;;;-1.75;74.30176;93575.31;;;;
2020/12/30 01:19:56;;;;;;;6.000001;4.5;;;;;;;-1.75;74.30176;93575.31;;;;
2020/12/30 01:20:56;;;;;;;6.000001;4.5;;;;;;;-1.75;74.30176;93575.31;;;;
2020/12/30 01:22:01;;;;;;;6.000001;4.5;;;;;;;-1.75;74.30176;93575.31;;;;
2020/12/30 01:23:01;;;;;;;6.000001;4.5;;;;;;;-1.75;74.30176;93575.31;;;;
2020/12/30 01:24:02;;;;;;;6.000001;4.5;;;;;;;-1.75;74.30176;93575.31;;;;
2020/12/30 01:25:03;;;;;;;6.000001;4.5;;;;;;;-1.75;74.30176;93575.31;;;;
2020/12/30 01:26:03;;;;;;;6.000001;4.5;;;;;;;-1.75;74.30176;93575.31;;;;
2020/12/30 01:27:04;;;;;;;6.000001;4.5;;;;;;;-1.75;74.30176;93575.31;;;;
2020/12/30 01:28:04;;;;;;;5.950001;4.3;;;;;;;-1.88;74.58008;93581.92;;;;
2020/12/30 01:29:04;;;;;;;5.950001;4.3;;;;;;;-1.88;74.58008;93581.92;;;;
2020/12/30 01:30:06;;;;;;;5.950001;4.3;;;;;;;-1.88;74.58008;93581.92;;;;
2020/12/30 01:31:06;;;;;;;5.950001;4.3;;;;;;;-1.88;74.58008;93581.92;;;;
2020/12/30 01:32:07;;;;;;;5.950001;4.3;;;;;;;-1.88;74.58008;93581.92;;;;
2020/12/30 01:33:07;;;;;;;5.950001;4.3;;;;;;;-1.88;74.58008;93581.92;;;;
2020/12/30 01:34:08;;;;;;;5.950001;4.3;;;;;;;-1.88;74.58008;93581.92;;;;
2020/12/30 01:35:09;;;;;;;5.950001;4.3;;;;;;;-1.88;74.58008;93581.92;;;;
2020/12/30 01:36:09;;;;;;;5.950001;4.3;;;;;;;-1.88;74.58008;93581.92;;;;
2020/12/30 01:37:11;;;;;;;5.950001;4.3;;;;;;;-1.88;74.58008;93581.92;;;;
2020/12/30 01:38:11;;;;;;;5.950001;4.3;;;;;;;-1.88;74.58008;93581.92;;;;
2020/12/30 01:39:12;;;;;;;6.750001;4.35;;;;;;;-1.93;74.5293;93588.33;;;;
2020/12/30 01:40:12;;;;;;;6.750001;4.35;;;;;;;-1.93;74.5293;93588.33;;;;
2020/12/30 01:41:13;;;;;;;6.750001;4.35;;;;;;;-1.93;74.5293;93588.33;;;;
2020/12/30 01:42:13;;;;;;;6.750001;4.35;;;;;;;-1.93;74.5293;93588.33;;;;
2020/12/30 01:43:14;;;;;;;6.750001;4.35;;;;;;;-1.93;74.5293;93588.33;;;;
2020/12/30 01:44:14;;;;;;;6.750001;4.35;;;;;;;-1.93;74.5293;93588.33;;;;
2020/12/30 01:45:15;;;;;;;6.750001;4.35;;;;;;;-1.93;74.5293;93588.33;;;;
2020/12/30 01:46:16;;;;;;;6.750001;4.35;;;;;;;-1.93;74.5293;93588.33;;;;
2020/12/30 01:47:17;;;;;;;6.750001;4.35;;;;;;;-1.93;74.5293;93588.33;;;;
2020/12/30 01:48:18;;;;;;;6.750001;4.35;;;;;;;-1.93;74.5293;93588.33;;;;
2020/12/30 01:49:22;;;;;;;7.249999;4.95;;;;;;;-1.99;74.64551;93603.58;;;;
2020/12/30 01:50:23;;;;;;;7.249999;4.95;;;;;;;-1.99;74.64551;93603.58;;;;
2020/12/30 01:51:24;;;;;;;7.249999;4.95;;;;;;;-1.99;74.64551;93603.58;;;;
2020/12/30 01:52:24;;;;;;;7.249999;4.95;;;;;;;-1.99;74.64551;93603.58;;;;
2020/12/30 01:53:25;;;;;;;7.249999;4.95;;;;;;;-1.99;74.64551;93603.58;;;;
2020/12/30 01:54:26;;;;;;;7.249999;4.95;;;;;;;-1.99;74.64551;93603.58;;;;
2020/12/30 01:55:27;;;;;;;7.249999;4.95;;;;;;;-1.99;74.64551;93603.58;;;;
2020/12/30 01:56:32;;;;;;;7.249999;4.95;;;;;;;-1.99;74.64551;93603.58;;;;
2020/12/30 01:57:34;;;;;;;7.249999;4.95;;;;;;;-1.99;74.64551;93603.58;;;;
2020/12/30 01:58:36;;;;;;;7.249999;4.95;;;;;;;-1.99;74.64551;93603.58;;;;
2020/12/30 01:59:37;;;;;;;7.249999;4.95;;;;;;;-1.99;74.64551;93603.58;;;;
2020/12/30 02:00:37;;;;;;;8.549999;5.05;;;;;;;-1.88;74.72559;93608.36;;;;
2020/12/30 02:01:40;;;;;;;8.549999;5.05;;;;;;;-1.88;74.72559;93608.36;;;;
2020/12/30 02:02:43;;;;;;;8.549999;5.05;;;;;;;-1.88;74.72559;93608.36;;;;
2020/12/30 02:03:48;;;;;;;8.549999;5.05;;;;;;;-1.88;74.72559;93608.36;;;;
2020/12/30 02:04:54;;;;;;;8.549999;5.05;;;;;;;-1.88;74.72559;93608.36;;;;
2020/12/30 02:05:57;;;;;;;8.549999;5.05;;;;;;;-1.88;74.72559;93608.36;;;;
2020/12/30 02:06:58;;;;;;;8.549999;5.05;;;;;;;-1.88;74.72559;93608.36;;;;
2020/12/30 02:07:58;;;;;;;8.549999;5.05;;;;;;;-1.88;74.72559;93608.36;;;;
2020/12/30 02:08:59;;;;;;;8.549999;5.05;;;;;;;-1.88;74.72559;93608.36;;;;
2020/12/30 02:10:02;;;;;;;8.549999;5.05;;;;;;;-1.88;74.72559;93608.36;;;;
2020/12/30 02:11:03;;;;;;;7.949999;5.25;;;;;;;-1.68;74.64746;93602.49;;;;
2020/12/30 02:12:04;;;;;;;7.949999;5.25;;;;;;;-1.68;74.64746;93602.49;;;;
2020/12/30 02:13:05;;;;;;;7.949999;5.25;;;;;;;-1.68;74.64746;93602.49;;;;
2020/12/30 02:14:05;;;;;;;7.949999;5.25;;;;;;;-1.68;74.64746;93602.49;;;;
2020/12/30 02:15:07;;;;;;;7.949999;5.25;;;;;;;-1.68;74.64746;93602.49;;;;
2020/12/30 02:16:08;;;;;;;7.949999;5.25;;;;;;;-1.68;74.64746;93602.49;;;;
2020/12/30 02:17:08;;;;;;;7.949999;5.25;;;;;;;-1.68;74.64746;93602.49;;;;
2020/12/30 02:18:12;;;;;;;7.949999;5.25;;;;;;;-1.68;74.64746;93602.49;;;;
2020/12/30 02:19:12;;;;;;;7.949999;5.25;;;;;;;-1.68;74.64746;93602.49;;;;
2020/12/30 02:20:13;;;;;;;7.949999;5.25;;;;;;;-1.68;74.64746;93602.49;;;;
2020/12/30 02:21:14;;;;;;;7.949999;5.25;;;;;;;-1.68;74.64746;93602.49;;;;
2020/12/30 02:22:14;;;;;;;8.65;5.449999;;;;;;;-1.47;74.75684;93605.02;;;;
2020/12/30 02:23:20;;;;;;;8.65;5.449999;;;;;;;-1.47;74.75684;93605.02;;;;
2020/12/30 02:24:21;;;;;;;8.65;5.449999;;;;;;;-1.47;74.75684;93605.02;;;;
2020/12/30 02:25:25;;;;;;;8.65;5.449999;;;;;;;-1.47;74.75684;93605.02;;;;
2020/12/30 02:26:26;;;;;;;8.65;5.449999;;;;;;;-1.47;74.75684;93605.02;;;;
2020/12/30 02:27:27;;;;;;;8.65;5.449999;;;;;;;-1.47;74.75684;93605.02;;;;
2020/12/30 02:28:27;;;;;;;8.65;5.449999;;;;;;;-1.47;74.75684;93605.02;;;;
2020/12/30 02:29:27;;;;;;;8.65;5.449999;;;;;;;-1.47;74.75684;93605.02;;;;
2020/12/30 02:30:29;;;;;;;8.65;5.449999;;;;;;;-1.47;74.75684;93605.02;;;;
2020/12/30 02:31:29;;;;;;;8.65;5.449999;;;;;;;-1.47;74.75684;93605.02;;;;
2020/12/30 02:32:30;;;;;;;8.249998;5.4;;;;;;;-1.21;74.86621;93605.42;;;;
2020/12/30 02:33:30;;;;;;;8.249998;5.4;;;;;;;-1.21;74.86621;93605.42;;;;
2020/12/30 02:34:31;;;;;;;8.249998;5.4;;;;;;;-1.21;74.86621;93605.42;;;;
2020/12/30 02:35:31;;;;;;;8.249998;5.4;;;;;;;-1.21;74.86621;93605.42;;;;
2020/12/30 02:36:32;;;;;;;8.249998;5.4;;;;;;;-1.21;74.86621;93605.42;;;;
2020/12/30 02:37:33;;;;;;;8.249998;5.4;;;;;;;-1.21;74.86621;93605.42;;;;
2020/12/30 02:38:33;;;;;;;8.249998;5.4;;;;;;;-1.21;74.86621;93605.42;;;;
2020/12/30 02:39:33;;;;;;;8.249998;5.4;;;;;;;-1.21;74.86621;93605.42;;;;
2020/12/30 02:40:34;;;;;;;8.249998;5.4;;;;;;;-1.21;74.86621;93605.42;;;;
2020/12/30 02:41:34;;;;;;;8.249998;5.4;;;;;;;-1.21;74.86621;93605.42;;;;
2020/12/30 02:42:35;;;;;;;7.25;4.65;;;;;;;-0.95;74.74414;93607.18;;;;
2020/12/30 02:43:36;;;;;;;7.25;4.65;;;;;;;-0.95;74.74414;93607.18;;;;
2020/12/30 02:44:36;;;;;;;7.25;4.65;;;;;;;-0.95;74.74414;93607.18;;;;
2020/12/30 02:45:37;;;;;;;7.25;4.65;;;;;;;-0.95;74.74414;93607.18;;;;
2020/12/30 02:46:37;;;;;;;7.25;4.65;;;;;;;-0.95;74.74414;93607.18;;;;
2020/12/30 02:47:38;;;;;;;7.25;4.65;;;;;;;-0.95;74.74414;93607.18;;;;
2020/12/30 02:48:38;;;;;;;7.25;4.65;;;;;;;-0.95;74.74414;93607.18;;;;
2020/12/30 02:49:39;;;;;;;7.25;4.65;;;;;;;-0.95;74.74414;93607.18;;;;
2020/12/30 02:50:39;;;;;;;7.25;4.65;;;;;;;-0.95;74.74414;93607.18;;;;
2020/12/30 02:51:40;;;;;;;7.25;4.65;;;;;;;-0.95;74.74414;93607.18;;;;
2020/12/30 02:52:42;;;;;;;7.25;4.65;;;;;;;-0.95;74.74414;93607.18;;;;
2020/12/30 02:53:42;;;;;;;5.45;3.55;;;;;;;-0.82;74.95508;93614.59;;;;
2020/12/30 02:54:43;;;;;;;5.45;3.55;;;;;;;-0.82;74.95508;93614.59;;;;
2020/12/30 02:55:43;;;;;;;5.45;3.55;;;;;;;-0.82;74.95508;93614.59;;;;
2020/12/30 02:56:43;;;;;;;5.45;3.55;;;;;;;-0.82;74.95508;93614.59;;;;
2020/12/30 02:57:44;;;;;;;5.45;3.55;;;;;;;-0.82;74.95508;93614.59;;;;
2020/12/30 02:58:44;;;;;;;5.45;3.55;;;;;;;-0.82;74.95508;93614.59;;;;
2020/12/30 02:59:46;;;;;;;5.45;3.55;;;;;;;-0.82;74.95508;93614.59;;;;
2020/12/30 03:00:46;;;;;;;5.45;3.55;;;;;;;-0.82;74.95508;93614.59;;;;
2020/12/30 03:01:47;;;;;;;5.45;3.55;;;;;;;-0.82;74.95508;93614.59;;;;
2020/12/30 03:02:47;;;;;;;5.45;3.55;;;;;;;-0.82;74.95508;93614.59;;;;
2020/12/30 03:03:48;;;;;;;5.45;3.55;;;;;;;-0.82;74.95508;93614.59;;;;
2020/12/30 03:04:48;;;;;;;5.699999;3.35;;;;;;;-0.64;75.13281;93616.99;;;;
2020/12/30 03:05:49;;;;;;;5.699999;3.35;;;;;;;-0.64;75.13281;93616.99;;;;
2020/12/30 03:06:49;;;;;;;5.699999;3.35;;;;;;;-0.64;75.13281;93616.99;;;;
2020/12/30 03:07:49;;;;;;;5.699999;3.35;;;;;;;-0.64;75.13281;93616.99;;;;
2020/12/30 03:08:50;;;;;;;5.699999;3.35;;;;;;;-0.64;75.13281;93616.99;;;;
2020/12/30 03:09:50;;;;;;;5.699999;3.35;;;;;;;-0.64;75.13281;93616.99;;;;
2020/12/30 03:10:51;;;;;;;5.699999;3.35;;;;;;;-0.64;75.13281;93616.99;;;;
2020/12/30 03:11:51;;;;;;;5.699999;3.35;;;;;;;-0.64;75.13281;93616.99;;;;
2020/12/30 03:12:52;;;;;;;5.699999;3.35;;;;;;;-0.64;75.13281;93616.99;;;;
2020/12/30 03:13:52;;;;;;;5.699999;3.35;;;;;;;-0.64;75.13281;93616.99;;;;
2020/12/30 03:14:53;;;;;;;5.1;3.35;;;;;;;-0.45;75.38477;93615.68;;;;
2020/12/30 03:15:54;;;;;;;5.1;3.35;;;;;;;-0.45;75.38477;93615.68;;;;
2020/12/30 03:16:54;;;;;;;5.1;3.35;;;;;;;-0.45;75.38477;93615.68;;;;
2020/12/30 03:17:55;;;;;;;5.1;3.35;;;;;;;-0.45;75.38477;93615.68;;;;
2020/12/30 03:18:55;;;;;;;5.1;3.35;;;;;;;-0.45;75.38477;93615.68;;;;
2020/12/30 03:19:56;;;;;;;5.1;3.35;;;;;;;-0.45;75.38477;93615.68;;;;
2020/12/30 03:20:56;;;;;;;5.1;3.35;;;;;;;-0.45;75.38477;93615.68;;;;
2020/12/30 03:21:56;;;;;;;5.1;3.35;;;;;;;-0.45;75.38477;93615.68;;;;
2020/12/30 03:22:57;;;;;;;5.1;3.35;;;;;;;-0.45;75.38477;93615.68;;;;
2020/12/30 03:23:57;;;;;;;5.1;3.35;;;;;;;-0.45;75.38477;93615.68;;;;
2020/12/30 03:24:58;;;;;;;5.1;3.35;;;;;;;-0.45;75.38477;93615.68;;;;
2020/12/30 03:25:59;;;;;;;3.450001;2.35;;;;;;;-0.26;75.68066;93616.53;;;;
2020/12/30 03:26:59;;;;;;;3.450001;2.35;;;;;;;-0.26;75.68066;93616.53;;;;
2020/12/30 03:28:00;;;;;;;3.450001;2.35;;;;;;;-0.26;75.68066;93616.53;;;;
2020/12/30 03:29:01;;;;;;;3.450001;2.35;;;;;;;-0.26;75.68066;93616.53;;;;
2020/12/30 03:30:02;;;;;;;3.450001;2.35;;;;;;;-0.26;75.68066;93616.53;;;;
2020/12/30 03:31:03;;;;;;;3.450001;2.35;;;;;;;-0.26;75.68066;93616.53;;;;
2020/12/30 03:32:04;;;;;;;3.450001;2.35;;;;;;;-0.26;75.68066;93616.53;;;;
2020/12/30 03:33:04;;;;;;;3.450001;2.35;;;;;;;-0.26;75.68066;93616.53;;;;
2020/12/30 03:34:05;;;;;;;3.450001;2.35;;;;;;;-0.26;75.68066;93616.53;;;;
2020/12/30 03:35:06;;;;;;;3.450001;2.35;;;;;;;-0.26;75.68066;93616.53;;;;
2020/12/30 03:36:06;;;;;;;2.75;1.9;;;;;;;-0.09;75.72949;93631.05;;;;
2020/12/30 03:37:07;;;;;;;2.75;1.9;;;;;;;-0.09;75.72949;93631.05;;;;
2020/12/30 03:38:07;;;;;;;2.75;1.9;;;;;;;-0.09;75.72949;93631.05;;;;
2020/12/30 03:39:08;;;;;;;2.75;1.9;;;;;;;-0.09;75.72949;93631.05;;;;
2020/12/30 03:40:08;;;;;;;2.75;1.9;;;;;;;-0.09;75.72949;93631.05;;;;
2020/12/30 03:41:09;;;;;;;2.75;1.9;;;;;;;-0.09;75.72949;93631.05;;;;
2020/12/30 03:42:09;;;;;;;2.75;1.9;;;;;;;-0.09;75.72949;93631.05;;;;
2020/12/30 03:43:10;;;;;;;2.75;1.9;;;;;;;-0.09;75.72949;93631.05;;;;
2020/12/30 03:44:10;;;;;;;2.75;1.9;;;;;;;-0.09;75.72949;93631.05;;;;
2020/12/30 03:45:11;;;;;;;2.75;1.9;;;;;;;-0.09;75.72949;93631.05;;;;
2020/12/30 03:46:11;;;;;;;2.75;1.9;;;;;;;-0.09;75.72949;93631.05;;;;
2020/12/30 03:47:12;;;;;;;2.75;2.05;;;;;;;0.02;75.77051;93634.36;;;;
2020/12/30 03:48:12;;;;;;;2.75;2.05;;;;;;;0.02;75.77051;93634.36;;;;
2020/12/30 03:49:13;;;;;;;2.75;2.05;;;;;;;0.02;75.77051;93634.36;;;;
2020/12/30 03:50:13;;;;;;;2.75;2.05;;;;;;;0.02;75.77051;93634.36;;;;
2020/12/30 03:51:14;;;;;;;2.75;2.05;;;;;;;0.02;75.77051;93634.36;;;;
2020/12/30 03:52:14;;;;;;;2.75;2.05;;;;;;;0.02;75.77051;93634.36;;;;
2020/12/30 03:53:15;;;;;;;2.75;2.05;;;;;;;0.02;75.77051;93634.36;;;;
2020/12/30 03:54:15;;;;;;;2.75;2.05;;;;;;;0.02;75.77051;93634.36;;;;
2020/12/30 03:55:16;;;;;;;2.75;2.05;;;;;;;0.02;75.77051;93634.36;;;;
2020/12/30 03:56:16;;;;;;;2.75;2.05;;;;;;;0.02;75.77051;93634.36;;;;
2020/12/30 03:57:17;;;;;;;2.75;2.05;;;;;;;0.02;75.77051;93634.36;;;;
2020/12/30 03:58:17;;;;;;;3.65;1.8;;;;;;;0.16;76.10742;93630.59;;;;
2020/12/30 03:59:18;;;;;;;3.65;1.8;;;;;;;0.16;76.10742;93630.59;;;;
2020/12/30 04:00:18;;;;;;;3.65;1.8;;;;;;;0.16;76.10742;93630.59;;;;
2020/12/30 04:01:19;;;;;;;3.65;1.8;;;;;;;0.16;76.10742;93630.59;;;;
2020/12/30 04:02:19;;;;;;;3.65;1.8;;;;;;;0.16;76.10742;93630.59;;;;
2020/12/30 04:03:20;;;;;;;3.65;1.8;;;;;;;0.16;76.10742;93630.59;;;;
2020/12/30 04:04:20;;;;;;;3.65;1.8;;;;;;;0.16;76.10742;93630.59;;;;
2020/12/30 04:05:21;;;;;;;3.65;1.8;;;;;;;0.16;76.10742;93630.59;;;;
2020/12/30 04:06:21;;;;;;;3.65;1.8;;;;;;;0.16;76.10742;93630.59;;;;
2020/12/30 04:07:22;;;;;;;3.65;1.8;;;;;;;0.16;76.10742;93630.59;;;;
2020/12/30 04:08:22;;;;;;;2.1;1.75;;;;;;;0.3;76.3623;93634.79;;;;
2020/12/30 04:09:23;;;;;;;2.1;1.75;;;;;;;0.3;76.3623;93634.79;;;;
2020/12/30 04:10:23;;;;;;;2.1;1.75;;;;;;;0.3;76.3623;93634.79;;;;
2020/12/30 04:11:23;;;;;;;2.1;1.75;;;;;;;0.3;76.3623;93634.79;;;;
2020/12/30 04:12:24;;;;;;;2.1;1.75;;;;;;;0.3;76.3623;93634.79;;;;
2020/12/30 04:13:24;;;;;;;2.1;1.75;;;;;;;0.3;76.3623;93634.79;;;;
2020/12/30 04:14:25;;;;;;;2.1;1.75;;;;;;;0.3;76.3623;93634.79;;;;
2020/12/30 04:15:25;;;;;;;2.1;1.75;;;;;;;0.3;76.3623;93634.79;;;;
2020/12/30 04:16:26;;;;;;;2.1;1.75;;;;;;;0.3;76.3623;93634.79;;;;
2020/12/30 04:17:27;;;;;;;2.1;1.75;;;;;;;0.3;76.3623;93634.79;;;;
2020/12/30 04:18:27;;;;;;;2.1;1.75;;;;;;;0.3;76.3623;93634.79;;;;
2020/12/30 04:19:28;;;;;;;3;2.2;;;;;;;0.49;76.1377;93639.96;;;;
2020/12/30 04:20:28;;;;;;;3;2.2;;;;;;;0.49;76.1377;93639.96;;;;
2020/12/30 04:21:28;;;;;;;3;2.2;;;;;;;0.49;76.1377;93639.96;;;;
2020/12/30 04:22:29;;;;;;;3;2.2;;;;;;;0.49;76.1377;93639.96;;;;
2020/12/30 04:23:29;;;;;;;3;2.2;;;;;;;0.49;76.1377;93639.96;;;;
2020/12/30 04:24:30;;;;;;;3;2.2;;;;;;;0.49;76.1377;93639.96;;;;
2020/12/30 04:25:31;;;;;;;3;2.2;;;;;;;0.49;76.1377;93639.96;;;;
2020/12/30 04:26:31;;;;;;;3;2.2;;;;;;;0.49;76.1377;93639.96;;;;
2020/12/30 04:27:32;;;;;;;3;2.2;;;;;;;0.49;76.1377;93639.96;;;;
2020/12/30 04:28:32;;;;;;;3;2.2;;;;;;;0.49;76.1377;93639.96;;;;
2020/12/30 04:29:33;;;;;;;2.9;1.75;;;;;;;0.57;76.38965;93640.22;;;;
2020/12/30 04:30:33;;;;;;;2.9;1.75;;;;;;;0.57;76.38965;93640.22;;;;
2020/12/30 04:31:34;;;;;;;2.9;1.75;;;;;;;0.57;76.38965;93640.22;;;;
2020/12/30 04:32:35;;;;;;;2.9;1.75;;;;;;;0.57;76.38965;93640.22;;;;
2020/12/30 04:33:36;;;;;;;2.9;1.75;;;;;;;0.57;76.38965;93640.22;;;;
2020/12/30 04:34:37;;;;;;;2.9;1.75;;;;;;;0.57;76.38965;93640.22;;;;
2020/12/30 04:35:38;;;;;;;2.9;1.75;;;;;;;0.57;76.38965;93640.22;;;;
2020/12/30 04:36:38;;;;;;;2.9;1.75;;;;;;;0.57;76.38965;93640.22;;;;
2020/12/30 04:37:39;;;;;;;2.9;1.75;;;;;;;0.57;76.38965;93640.22;;;;
2020/12/30 04:38:39;;;;;;;2.9;1.75;;;;;;;0.57;76.38965;93640.22;;;;
2020/12/30 04:39:40;;;;;;;2.9;1.75;;;;;;;0.57;76.38965;93640.22;;;;
2020/12/30 04:40:41;;;;;;;2.65;1.85;;;;;;;0.62;76.30566;93642.11;;;;
2020/12/30 04:41:42;;;;;;;2.65;1.85;;;;;;;0.62;76.30566;93642.11;;;;
2020/12/30 04:42:44;;;;;;;2.65;1.85;;;;;;;0.62;76.30566;93642.11;;;;
2020/12/30 04:43:49;;;;;;;2.65;1.85;;;;;;;0.62;76.30566;93642.11;;;;
2020/12/30 04:44:50;;;;;;;2.65;1.85;;;;;;;0.62;76.30566;93642.11;;;;
2020/12/30 04:45:54;;;;;;;2.65;1.85;;;;;;;0.62;76.30566;93642.11;;;;
2020/12/30 04:46:56;;;;;;;2.65;1.85;;;;;;;0.62;76.30566;93642.11;;;;
2020/12/30 04:47:58;;;;;;;2.65;1.85;;;;;;;0.62;76.30566;93642.11;;;;
2020/12/30 04:49:00;;;;;;;2.65;1.85;;;;;;;0.62;76.30566;93642.11;;;;
2020/12/30 04:50:01;;;;;;;2.65;1.85;;;;;;;0.62;76.30566;93642.11;;;;
2020/12/30 04:51:03;;;;;;;3.2;1.8;;;;;;;0.62;76.28516;93655.39;;;;
2020/12/30 04:52:04;;;;;;;3.2;1.8;;;;;;;0.62;76.28516;93655.39;;;;
2020/12/30 04:53:05;;;;;;;3.2;1.8;;;;;;;0.62;76.28516;93655.39;;;;
2020/12/30 04:54:06;;;;;;;3.2;1.8;;;;;;;0.62;76.28516;93655.39;;;;
2020/12/30 04:55:07;;;;;;;3.2;1.8;;;;;;;0.62;76.28516;93655.39;;;;
2020/12/30 04:56:07;;;;;;;3.2;1.8;;;;;;;0.62;76.28516;93655.39;;;;
2020/12/30 04:57:09;;;;;;;3.2;1.8;;;;;;;0.62;76.28516;93655.39;;;;
2020/12/30 04:58:21;;;;;;;3.2;1.8;;;;;;;0.62;76.28516;93655.39;;;;
2020/12/30 04:59:26;;;;;;;3.2;1.8;;;;;;;0.62;76.28516;93655.39;;;;
2020/12/30 05:00:28;;;;;;;3.2;1.8;;;;;;;0.62;76.28516;93655.39;;;;
2020/12/30 05:01:30;;;;;;;3.55;1.9;;;;;;;0.64;76.5166;93648.53;;;;
2020/12/30 05:02:33;;;;;;;3.55;1.9;;;;;;;0.64;76.5166;93648.53;;;;
2020/12/30 05:03:35;;;;;;;3.55;1.9;;;;;;;0.64;76.5166;93648.53;;;;
2020/12/30 05:04:45;;;;;;;3.55;1.9;;;;;;;0.64;76.5166;93648.53;;;;
2020/12/30 05:05:45;;;;;;;3.55;1.9;;;;;;;0.64;76.5166;93648.53;;;;
2020/12/30 05:06:46;;;;;;;3.55;1.9;;;;;;;0.64;76.5166;93648.53;;;;
2020/12/30 05:07:49;;;;;;;3.55;1.9;;;;;;;0.64;76.5166;93648.53;;;;
2020/12/30 05:08:52;;;;;;;3.55;1.9;;;;;;;0.64;76.5166;93648.53;;;;
2020/12/30 05:09:55;;;;;;;3.55;1.9;;;;;;;0.64;76.5166;93648.53;;;;
2020/12/30 05:10:59;;;;;;;3.55;1.9;;;;;;;0.64;76.5166;93648.53;;;;
2020/12/30 05:12:00;;;;;;;3.55;1.9;;;;;;;0.64;76.5166;93648.53;;;;
2020/12/30 05:13:01;;;;;;;3.95;2.1;;;;;;;0.67;76.68066;93663.51;;;;
2020/12/30 05:14:01;;;;;;;3.95;2.1;;;;;;;0.67;76.68066;93663.51;;;;
2020/12/30 05:15:02;;;;;;;3.95;2.1;;;;;;;0.67;76.68066;93663.51;;;;
2020/12/30 05:16:02;;;;;;;3.95;2.1;;;;;;;0.67;76.68066;93663.51;;;;
2020/12/30 05:17:03;;;;;;;3.95;2.1;;;;;;;0.67;76.68066;93663.51;;;;
2020/12/30 05:18:05;;;;;;;3.95;2.1;;;;;;;0.67;76.68066;93663.51;;;;
2020/12/30 05:19:06;;;;;;;3.95;2.1;;;;;;;0.67;76.68066;93663.51;;;;
2020/12/30 05:20:07;;;;;;;3.95;2.1;;;;;;;0.67;76.68066;93663.51;;;;
2020/12/30 05:21:09;;;;;;;3.95;2.1;;;;;;;0.67;76.68066;93663.51;;;;
2020/12/30 05:22:09;;;;;;;3.95;2.1;;;;;;;0.67;76.68066;93663.51;;;;
2020/12/30 05:23:15;;;;;;;3.3;1.9;;;;;;;0.74;76.53711;93687.77;;;;
2020/12/30 05:24:16;;;;;;;3.3;1.9;;;;;;;0.74;76.53711;93687.77;;;;
2020/12/30 05:25:18;;;;;;;3.3;1.9;;;;;;;0.74;76.53711;93687.77;;;;
2020/12/30 05:26:25;;;;;;;3.3;1.9;;;;;;;0.74;76.53711;93687.77;;;;
2020/12/30 05:27:27;;;;;;;3.3;1.9;;;;;;;0.74;76.53711;93687.77;;;;
2020/12/30 05:28:27;;;;;;;3.3;1.9;;;;;;;0.74;76.53711;93687.77;;;;
2020/12/30 05:29:28;;;;;;;3.3;1.9;;;;;;;0.74;76.53711;93687.77;;;;
2020/12/30 05:30:28;;;;;;;3.3;1.9;;;;;;;0.74;76.53711;93687.77;;;;
2020/12/30 05:31:29;;;;;;;3.3;1.9;;;;;;;0.74;76.53711;93687.77;;;;
2020/12/30 05:32:31;;;;;;;3.3;1.9;;;;;;;0.74;76.53711;93687.77;;;;
2020/12/30 05:33:36;;;;;;;2.900001;2;;;;;;;0.78;76.40625;93700.51;;;;
2020/12/30 05:34:37;;;;;;;2.900001;2;;;;;;;0.78;76.40625;93700.51;;;;
2020/12/30 05:35:37;;;;;;;2.900001;2;;;;;;;0.78;76.40625;93700.51;;;;
2020/12/30 05:36:38;;;;;;;2.900001;2;;;;;;;0.78;76.40625;93700.51;;;;
2020/12/30 05:37:40;;;;;;;2.900001;2;;;;;;;0.78;76.40625;93700.51;;;;
2020/12/30 05:38:40;;;;;;;2.900001;2;;;;;;;0.78;76.40625;93700.51;;;;
2020/12/30 05:39:41;;;;;;;2.900001;2;;;;;;;0.78;76.40625;93700.51;;;;
2020/12/30 05:40:42;;;;;;;2.900001;2;;;;;;;0.78;76.40625;93700.51;;;;